Terminal Aerodrome Forecast
Issued by NWS Hastings, NE

Home | Current Version | Previous Version | Text Only | Print | Product List | Glossary On
Versions: 1 2 3 4 5 6 7 8 9 10 11 12 13 14 15 16 17 18 19
000
FTUS43 KGID 280726 CCA
TAFGRI
TAF COR
KGRI 280726Z 2807/2906 11005KT 1SM BR SCT100
      TEMPO 2808/2812 1/2SM FG OVC002
     FM281500 11007KT P6SM BKN015
     FM281800 10011KT P6SM VCSH OVC020
     FM282200 09013KT P6SM VCSH OVC030
     FM290000 09011KT P6SM -RA OVC035
     FM290500 07010KT 4SM -RA OVC005=

USA.gov is the U.S. government's official web portal to all federal, state and local government web resources and services.